Time;durP1;ratioP1;P1;durP2;ratioP2;P2;SDS_P1;SDS_P2;PMS_P1;PMS_P2;Temp;Humidity;BMP_temperature;BMP_pressure;BME280_temperature;BME280_humidity;BME280_pressure;Samples;Min_cycle;Max_cycle;Signal;HPM_P1;HPM_P2
2022/08/28 00:03:50;;;;;;;1.48;1.17;;;;;;;;;;10469993;28;20132;-89
2022/08/28 00:08:56;;;;;;;2.47;1.40;;;;;;;;;;10452057;28;20519;-89
2022/08/28 00:13:59;;;;;;;1.30;1.20;;;;;;;;;;10451210;28;20434;-88
2022/08/28 00:19:03;;;;;;;1.90;1.27;;;;;;;;;;10450456;28;20306;-89
2022/08/28 00:24:08;;;;;;;1.70;1.35;;;;;;;;;;10451106;28;20503;-89
2022/08/28 00:29:12;;;;;;;1.88;1.27;;;;;;;;;;10443506;28;20041;-89
2022/08/28 00:34:15;;;;;;;1.80;1.65;;;;;;;;;;10475350;28;20429;-89
2022/08/28 00:39:20;;;;;;;1.48;1.35;;;;;;;;;;10475932;28;20060;-90
2022/08/28 00:44:26;;;;;;;1.70;1.20;;;;;;;;;;10491513;28;20455;-89
2022/08/28 00:49:32;;;;;;;1.27;1.00;;;;;;;;;;10456165;28;20083;-89
2022/08/28 00:54:41;;;;;;;1.98;1.40;;;;;;;;;;10457524;28;20041;-89
2022/08/28 00:59:44;;;;;;;2.00;1.27;;;;;;;;;;10441366;28;20099;-89
2022/08/28 01:04:49;;;;;;;1.35;1.25;;;;;;;;;;10457953;28;20037;-89
2022/08/28 01:09:55;;;;;;;1.88;1.13;;;;;;;;;;10449168;28;20057;-89
2022/08/28 01:15:01;;;;;;;2.05;1.10;;;;;;;;;;10441731;28;20163;-89
2022/08/28 01:20:09;;;;;;;1.48;0.90;;;;;;;;;;10416131;28;20393;-91
2022/08/28 01:25:17;;;;;;;1.95;0.85;;;;;;;;;;10442269;28;20057;-89
2022/08/28 01:30:23;;;;;;;1.02;0.93;;;;;;;;;;10440273;28;20060;-89
2022/08/28 01:35:28;;;;;;;;;;;;;;;;;;10440103;28;20045;-89
2022/08/28 01:40:34;;;;;;;;;;;;;;;;;;10440615;28;19920;-90
2022/08/28 01:45:38;;;;;;;;;;;;;;;;;;10440414;28;20371;-89
2022/08/28 01:50:42;;;;;;;1.35;1.17;;;;;;;;;;10439642;28;19937;-90
2022/08/28 01:55:47;;;;;;;2.22;1.30;;;;;;;;;;10453433;28;20111;-90
2022/08/28 02:00:51;;;;;;;2.15;1.27;;;;;;;;;;10497247;28;20049;-89
2022/08/28 02:05:54;;;;;;;2.10;1.40;;;;;;;;;;10497020;28;20048;-89
2022/08/28 02:10:59;;;;;;;2.15;1.05;;;;;;;;;;10496661;28;20051;-89
2022/08/28 02:16:04;;;;;;;1.20;1.10;;;;;;;;;;10479607;28;20157;-89
2022/08/28 02:21:08;;;;;;;1.30;0.88;;;;;;;;;;10462140;28;20044;-88
2022/08/28 02:26:15;;;;;;;2.90;0.80;;;;;;;;;;10438412;28;20045;-89
2022/08/28 02:31:19;;;;;;;1.50;0.93;;;;;;;;;;10438497;28;20041;-89
2022/08/28 02:36:22;;;;;;;2.17;1.25;;;;;;;;;;10454165;28;20388;-89
2022/08/28 02:41:27;;;;;;;2.83;1.20;;;;;;;;;;10437519;28;20044;-89
2022/08/28 02:46:35;;;;;;;4.38;1.17;;;;;;;;;;10438431;28;20052;-88
2022/08/28 02:51:39;;;;;;;2.00;1.08;;;;;;;;;;10445369;28;20040;-89
2022/08/28 02:56:44;;;;;;;1.20;1.00;;;;;;;;;;10445581;28;20102;-88
2022/08/28 03:01:48;;;;;;;0.85;0.80;;;;;;;;;;10449403;28;20045;-90
2022/08/28 03:06:51;;;;;;;1.38;1.00;;;;;;;;;;10455210;28;20454;-90
2022/08/28 03:11:56;;;;;;;1.95;1.38;;;;;;;;;;10455039;28;20118;-89
2022/08/28 03:17:00;;;;;;;2.75;1.55;;;;;;;;;;10432181;28;20053;-88
2022/08/28 03:22:04;;;;;;;3.17;1.00;;;;;;;;;;10436671;28;20052;-89
2022/08/28 03:27:11;;;;;;;1.73;0.95;;;;;;;;;;10436387;28;20053;-88
2022/08/28 03:32:15;;;;;;;1.15;0.88;;;;;;;;;;10467160;28;20049;-87
2022/08/28 03:37:18;;;;;;;2.03;0.90;;;;;;;;;;10433088;28;20045;-87
2022/08/28 03:42:23;;;;;;;2.40;1.17;;;;;;;;;;10466163;28;20090;-87
2022/08/28 03:47:27;;;;;;;2.00;1.08;;;;;;;;;;10433051;28;20049;-87
2022/08/28 03:52:31;;;;;;;2.13;1.13;;;;;;;;;;10433003;28;20051;-87
2022/08/28 03:57:36;;;;;;;2.45;1.02;;;;;;;;;;10432143;28;20060;-87
2022/08/28 04:02:40;;;;;;;4.30;1.37;;;;;;;;;;10432805;28;20116;-88
2022/08/28 04:07:44;;;;;;;1.25;1.15;;;;;;;;;;10432575;28;20049;-87
2022/08/28 04:12:48;;;;;;;1.55;1.23;;;;;;;;;;10446086;28;20045;-87
2022/08/28 04:17:52;;;;;;;1.70;1.00;;;;;;;;;;10449017;28;20053;-88
2022/08/28 04:22:56;;;;;;;1.80;1.20;;;;;;;;;;10450430;28;20519;-87
2022/08/28 04:28:01;;;;;;;1.27;0.80;;;;;;;;;;10455356;28;20056;-88
2022/08/28 04:33:05;;;;;;;2.45;1.00;;;;;;;;;;10447816;28;20419;-88
2022/08/28 04:38:08;;;;;;;1.33;0.88;;;;;;;;;;10457651;28;20183;-87
2022/08/28 04:43:13;;;;;;;1.45;1.10;;;;;;;;;;10439042;28;20419;-87
2022/08/28 04:48:17;;;;;;;1.10;0.93;;;;;;;;;;10448536;28;20049;-87
2022/08/28 04:53:20;;;;;;;1.17;0.98;;;;;;;;;;10444545;28;20099;-86
2022/08/28 04:58:26;;;;;;;0.93;0.90;;;;;;;;;;10455462;28;20049;-87
2022/08/28 05:03:29;;;;;;;0.70;0.65;;;;;;;;;;10443261;28;20045;-88
2022/08/28 05:08:33;;;;;;;1.80;0.85;;;;;;;;;;10454188;28;20049;-87
2022/08/28 05:13:38;;;;;;;2.40;0.75;;;;;;;;;;10440932;28;20182;-87
2022/08/28 05:18:42;;;;;;;1.25;0.95;;;;;;;;;;10455414;28;20091;-87
2022/08/28 05:23:45;;;;;;;1.10;0.77;;;;;;;;;;10455150;28;20072;-88
2022/08/28 05:28:50;;;;;;;1.38;0.88;;;;;;;;;;10437071;28;20040;-88
2022/08/28 05:33:53;;;;;;;1.40;0.90;;;;;;;;;;10454978;28;20037;-87
2022/08/28 05:38:58;;;;;;;2.75;1.00;;;;;;;;;;10436457;28;20499;-87
2022/08/28 05:44:06;;;;;;;1.25;0.73;;;;;;;;;;10454092;28;20079;-87
2022/08/28 05:49:11;;;;;;;1.77;0.93;;;;;;;;;;10453981;28;20067;-87
2022/08/28 05:54:15;;;;;;;1.98;1.00;;;;;;;;;;10436532;28;20041;-88
2022/08/28 05:59:20;;;;;;;1.08;0.52;;;;;;;;;;10452079;28;20114;-87
2022/08/28 06:04:27;;;;;;;2.10;1.05;;;;;;;;;;10454031;28;20102;-87
2022/08/28 06:09:31;;;;;;;1.48;0.63;;;;;;;;;;10444623;28;20470;-87
2022/08/28 06:14:36;;;;;;;2.60;0.95;;;;;;;;;;10441479;28;20552;-86
2022/08/28 06:19:40;;;;;;;0.65;0.40;;;;;;;;;;10436388;28;20094;-87
2022/08/28 06:24:44;;;;;;;1.48;0.85;;;;;;;;;;10454750;28;20422;-85
2022/08/28 06:29:49;;;;;;;1.48;0.80;;;;;;;;;;10453948;28;20053;-86
2022/08/28 06:34:52;;;;;;;1.67;0.70;;;;;;;;;;10444992;28;20411;-87
2022/08/28 06:39:56;;;;;;;2.70;1.02;;;;;;;;;;10437197;28;20511;-87
2022/08/28 06:45:01;;;;;;;2.45;0.80;;;;;;;;;;10436207;28;20041;-86
2022/08/28 06:50:05;;;;;;;1.25;0.68;;;;;;;;;;10434558;28;20090;-87
2022/08/28 06:55:09;;;;;;;1.85;0.60;;;;;;;;;;10394314;28;20092;-87
2022/08/28 07:00:15;;;;;;;2.88;0.60;;;;;;;;;;10392879;28;20401;-86
2022/08/28 07:05:18;;;;;;;2.05;0.50;;;;;;;;;;10393459;28;20123;-87
2022/08/28 07:10:22;;;;;;;2.15;0.68;;;;;;;;;;10421984;28;20106;-87
2022/08/28 07:15:26;;;;;;;3.30;0.77;;;;;;;;;;10435324;28;20048;-87
2022/08/28 07:20:30;;;;;;;5.03;1.00;;;;;;;;;;10450022;28;20069;-87
2022/08/28 07:25:34;;;;;;;1.00;0.60;;;;;;;;;;10450024;28;20059;-86
2022/08/28 07:30:38;;;;;;;1.70;0.60;;;;;;;;;;10448578;28;20049;-87
2022/08/28 07:35:44;;;;;;;1.85;0.65;;;;;;;;;;10449020;28;20099;-87
2022/08/28 07:40:47;;;;;;;2.03;0.60;;;;;;;;;;10441071;28;20068;-89
2022/08/28 07:45:59;;;;;;;2.03;0.80;;;;;;;;;;10444778;28;20491;-89
2022/08/28 07:51:03;;;;;;;1.95;0.73;;;;;;;;;;10434765;28;20634;-89
2022/08/28 07:56:07;;;;;;;0.73;0.40;;;;;;;;;;10435629;28;20071;-89
2022/08/28 08:01:11;;;;;;;2.92;0.90;;;;;;;;;;10439072;28;20049;-88
2022/08/28 08:06:16;;;;;;;1.77;0.60;;;;;;;;;;10447249;28;20099;-89
2022/08/28 08:11:19;;;;;;;1.45;0.50;;;;;;;;;;10444270;28;20580;-89
2022/08/28 08:16:26;;;;;;;1.30;0.82;;;;;;;;;;10460441;28;20506;-89
2022/08/28 08:21:29;;;;;;;1.70;0.80;;;;;;;;;;10443751;28;20052;-89
2022/08/28 08:26:33;;;;;;;2.15;0.55;;;;;;;;;;10428848;28;20512;-89
2022/08/28 08:31:38;;;;;;;1.27;0.70;;;;;;;;;;10402699;28;20115;-90
2022/08/28 08:36:42;;;;;;;3.05;0.95;;;;;;;;;;10401876;28;20049;-88
2022/08/28 08:41:48;;;;;;;1.92;0.70;;;;;;;;;;10430748;28;20045;-88
2022/08/28 08:47:01;;;;;;;2.88;0.60;;;;;;;;;;10444023;28;20042;-89
2022/08/28 08:52:29;;;;;;;0.88;0.60;;;;;;;;;;10450615;28;20088;-90
2022/08/28 08:57:35;;;;;;;1.45;0.60;;;;;;;;;;10443066;28;20041;-89
2022/08/28 09:02:46;;;;;;;1.13;0.50;;;;;;;;;;10443462;28;20450;-89
2022/08/28 09:07:56;;;;;;;1.58;0.70;;;;;;;;;;10441358;28;20045;-89
2022/08/28 09:13:10;;;;;;;0.98;0.73;;;;;;;;;;10440972;28;20106;-89
2022/08/28 09:18:20;;;;;;;1.95;0.60;;;;;;;;;;10433525;28;20053;-89
2022/08/28 09:23:25;;;;;;;1.77;0.77;;;;;;;;;;10438989;28;20534;-89
2022/08/28 09:28:30;;;;;;;0.90;0.38;;;;;;;;;;10442385;28;20079;-89
2022/08/28 09:33:40;;;;;;;3.10;0.73;;;;;;;;;;10460118;28;20069;-88
2022/08/28 09:38:44;;;;;;;2.05;0.52;;;;;;;;;;10446230;28;20102;-89
2022/08/28 09:43:47;;;;;;;3.83;0.90;;;;;;;;;;10443601;28;20568;-89
2022/08/28 09:48:52;;;;;;;1.30;0.50;;;;;;;;;;10455725;28;20056;-88
2022/08/28 09:54:00;;;;;;;1.57;0.63;;;;;;;;;;10450219;28;20053;-89
2022/08/28 09:59:07;;;;;;;1.15;0.52;;;;;;;;;;10438098;28;20037;-89
2022/08/28 10:04:31;;;;;;;2.08;0.70;;;;;;;;;;10440888;28;20415;-89
2022/08/28 10:09:43;;;;;;;1.70;0.80;;;;;;;;;;10438365;28;20068;-89
2022/08/28 10:14:55;;;;;;;2.05;0.57;;;;;;;;;;10435648;28;20045;-87
2022/08/28 16:24:12;;;;;;;0.80;0.57;;;;;;;;;;10454049;28;20116;-86
2022/08/28 16:29:16;;;;;;;1.65;0.90;;;;;;;;;;10397562;28;20052;-88
2022/08/28 16:34:19;;;;;;;1.65;0.70;;;;;;;;;;10450671;28;20044;-88
2022/08/28 16:39:24;;;;;;;2.15;0.98;;;;;;;;;;10475700;28;20564;-88
2022/08/28 16:44:28;;;;;;;0.82;0.73;;;;;;;;;;10480870;28;20525;-88
2022/08/28 16:49:31;;;;;;;1.63;0.70;;;;;;;;;;10476845;28;20049;-87
2022/08/28 16:54:36;;;;;;;0.88;0.50;;;;;;;;;;10439080;28;20037;-88
2022/08/28 16:59:40;;;;;;;3.15;0.50;;;;;;;;;;10464424;28;20110;-88
2022/08/28 17:04:43;;;;;;;1.05;0.55;;;;;;;;;;10475833;28;20044;-88
2022/08/28 17:09:48;;;;;;;1.13;0.45;;;;;;;;;;10456961;28;20043;-88
2022/08/28 17:14:51;;;;;;;1.27;0.55;;;;;;;;;;10448986;28;20048;-88
2022/08/28 17:19:55;;;;;;;1.27;0.60;;;;;;;;;;10414221;28;20076;-88
2022/08/28 17:25:08;;;;;;;2.28;0.50;;;;;;;;;;10433594;28;20227;-88
2022/08/28 17:30:12;;;;;;;1.67;0.50;;;;;;;;;;10437663;28;20461;-88
2022/08/28 17:35:16;;;;;;;0.73;0.40;;;;;;;;;;10453598;28;20450;-87
2022/08/28 17:40:21;;;;;;;1.13;0.50;;;;;;;;;;10456044;28;20057;-87
2022/08/28 17:45:25;;;;;;;1.50;0.60;;;;;;;;;;10461464;28;20466;-88
2022/08/28 17:50:28;;;;;;;0.80;0.35;;;;;;;;;;10458038;28;20341;-88
2022/08/28 17:55:33;;;;;;;1.25;0.60;;;;;;;;;;10490554;28;20041;-87
2022/08/28 18:00:38;;;;;;;1.23;0.73;;;;;;;;;;10473456;28;20044;-86
2022/08/28 18:05:42;;;;;;;1.13;0.50;;;;;;;;;;10482706;28;20041;-85
2022/08/28 18:10:47;;;;;;;0.80;0.50;;;;;;;;;;10454060;28;20099;-88
2022/08/28 18:15:50;;;;;;;1.75;0.65;;;;;;;;;;10454394;28;20102;-88
2022/08/28 18:20:54;;;;;;;0.95;0.47;;;;;;;;;;10443156;28;20090;-87
2022/08/28 18:25:59;;;;;;;0.93;0.35;;;;;;;;;;10459834;28;20118;-87
2022/08/28 18:31:04;;;;;;;1.03;0.40;;;;;;;;;;10436585;28;20103;-87
2022/08/28 18:36:09;;;;;;;1.63;0.57;;;;;;;;;;10454093;28;20048;-88
2022/08/28 18:41:14;;;;;;;0.30;0.30;;;;;;;;;;10478507;28;20037;-88
2022/08/28 18:46:17;;;;;;;0.73;0.40;;;;;;;;;;10450650;28;20283;-88
2022/08/28 18:51:21;;;;;;;1.67;0.60;;;;;;;;;;10434580;28;20068;-88
2022/08/28 18:56:25;;;;;;;1.25;0.80;;;;;;;;;;10463878;28;20502;-88
2022/08/28 19:01:32;;;;;;;2.13;0.70;;;;;;;;;;10452125;28;20558;-87
2022/08/28 19:06:40;;;;;;;0.85;0.40;;;;;;;;;;10392175;28;20100;-88
2022/08/28 19:11:44;;;;;;;1.63;0.60;;;;;;;;;;10410963;28;20075;-88
2022/08/28 19:16:48;;;;;;;0.73;0.40;;;;;;;;;;10457322;28;20052;-87
2022/08/28 19:21:51;;;;;;;0.75;0.45;;;;;;;;;;10479504;28;20045;-88
2022/08/28 19:26:56;;;;;;;0.82;0.40;;;;;;;;;;10437089;28;20075;-87
2022/08/28 19:31:59;;;;;;;1.52;0.50;;;;;;;;;;10475111;28;20044;-87
2022/08/28 19:37:04;;;;;;;1.35;0.50;;;;;;;;;;10493678;28;20056;-88
2022/08/28 19:42:09;;;;;;;2.00;0.50;;;;;;;;;;10493202;28;20052;-87
2022/08/28 19:47:13;;;;;;;2.90;0.70;;;;;;;;;;10494064;28;20052;-87
2022/08/28 19:52:16;;;;;;;0.85;0.43;;;;;;;;;;10494536;28;20068;-88
2022/08/28 19:57:21;;;;;;;1.20;0.52;;;;;;;;;;10463902;28;20087;-88
2022/08/28 20:02:24;;;;;;;1.30;0.52;;;;;;;;;;10457159;28;20079;-87
2022/08/28 20:07:28;;;;;;;1.13;0.63;;;;;;;;;;10453592;28;20059;-87
2022/08/28 20:12:33;;;;;;;0.80;0.70;;;;;;;;;;10473381;28;20110;-87
2022/08/28 20:17:36;;;;;;;2.38;0.60;;;;;;;;;;10497395;28;20053;-87
2022/08/28 20:22:40;;;;;;;2.78;0.90;;;;;;;;;;10483739;28;20330;-87
2022/08/28 20:27:45;;;;;;;1.23;0.70;;;;;;;;;;10483652;28;20053;-88
2022/08/28 20:32:48;;;;;;;2.28;0.60;;;;;;;;;;10483048;28;20117;-88
2022/08/28 20:37:52;;;;;;;1.30;0.60;;;;;;;;;;10459660;28;20511;-87
2022/08/28 20:43:01;;;;;;;2.30;0.50;;;;;;;;;;10484097;28;20107;-88
2022/08/28 20:48:05;;;;;;;0.93;0.50;;;;;;;;;;10457462;28;20048;-87
2022/08/28 20:53:09;;;;;;;0.70;0.50;;;;;;;;;;10450695;28;20056;-87
2022/08/28 20:58:14;;;;;;;0.80;0.47;;;;;;;;;;10456815;28;20144;-87
2022/08/28 21:03:17;;;;;;;2.13;0.60;;;;;;;;;;10439987;28;20047;-88
2022/08/28 21:08:21;;;;;;;1.73;0.80;;;;;;;;;;10439528;28;20569;-87
2022/08/28 21:13:26;;;;;;;0.82;0.60;;;;;;;;;;10442141;28;20049;-87
2022/08/28 21:18:30;;;;;;;0.82;0.50;;;;;;;;;;10452599;28;20099;-87
2022/08/28 21:23:34;;;;;;;1.67;0.50;;;;;;;;;;10454647;28;20454;-88
2022/08/28 21:28:39;;;;;;;3.90;0.70;;;;;;;;;;10497767;28;20502;-87
2022/08/28 21:33:43;;;;;;;0.70;0.52;;;;;;;;;;10440361;28;20286;-87
2022/08/28 21:38:46;;;;;;;0.73;0.52;;;;;;;;;;10436645;28;20503;-88
2022/08/28 21:43:51;;;;;;;1.50;0.60;;;;;;;;;;10455066;28;20053;-86
2022/08/28 21:48:55;;;;;;;0.82;0.47;;;;;;;;;;10460038;28;20044;-87
2022/08/28 21:53:58;;;;;;;1.33;0.63;;;;;;;;;;10479593;28;20083;-87
2022/08/28 21:59:03;;;;;;;1.27;0.88;;;;;;;;;;10436358;28;20037;-88
2022/08/28 22:04:06;;;;;;;1.02;0.60;;;;;;;;;;10453661;28;20465;-88
2022/08/28 22:09:10;;;;;;;1.40;0.70;;;;;;;;;;10494608;28;20048;-87
2022/08/28 22:14:14;;;;;;;1.20;0.60;;;;;;;;;;10477939;28;20102;-87
2022/08/28 22:19:18;;;;;;;1.30;0.63;;;;;;;;;;10448982;28;20052;-88
2022/08/28 22:24:22;;;;;;;1.38;0.70;;;;;;;;;;10427032;28;20087;-89
2022/08/28 22:29:29;;;;;;;2.20;0.82;;;;;;;;;;10434612;28;20087;-90
2022/08/28 22:34:38;;;;;;;1.50;0.70;;;;;;;;;;10434855;28;20045;-89
2022/08/28 22:39:41;;;;;;;0.95;0.63;;;;;;;;;;10434640;28;20083;-90
2022/08/28 22:44:46;;;;;;;0.90;0.50;;;;;;;;;;10433369;28;20045;-89
2022/08/28 22:49:50;;;;;;;1.98;0.70;;;;;;;;;;10434055;28;20418;-88
2022/08/28 22:54:53;;;;;;;1.98;0.80;;;;;;;;;;10434030;28;20620;-89
2022/08/28 23:00:01;;;;;;;0.40;0.30;;;;;;;;;;10433820;28;20096;-88
2022/08/28 23:05:07;;;;;;;1.73;0.52;;;;;;;;;;10449451;28;20044;-90
2022/08/28 23:10:12;;;;;;;1.50;0.60;;;;;;;;;;10432958;28;20091;-89
2022/08/28 23:15:19;;;;;;;1.60;0.80;;;;;;;;;;10433036;28;20044;-88
2022/08/28 23:20:24;;;;;;;2.88;0.55;;;;;;;;;;10432829;28;20037;-88
2022/08/28 23:25:27;;;;;;;0.98;0.65;;;;;;;;;;10432283;28;20036;-88
2022/08/28 23:30:32;;;;;;;2.15;0.70;;;;;;;;;;10431643;28;20040;-89
2022/08/28 23:35:36;;;;;;;1.50;0.60;;;;;;;;;;10431687;28;20056;-88
2022/08/28 23:40:40;;;;;;;1.27;0.60;;;;;;;;;;10432227;28;20041;-88
2022/08/28 23:45:45;;;;;;;1.70;0.90;;;;;;;;;;10448879;28;20052;-88
2022/08/28 23:50:48;;;;;;;1.17;0.68;;;;;;;;;;10431434;28;20045;-88
2022/08/28 23:55:52;;;;;;;1.35;0.50;;;;;;;;;;10432109;28;20052;-89
